Time;durP1;ratioP1;P1;durP2;ratioP2;P2;SDS_P1;SDS_P2;PMS_P1;PMS_P2;Temp;Humidity;BMP_temperature;BMP_pressure;BME280_temperature;BME280_humidity;BME280_pressure;Samples;Min_cycle;Max_cycle;Signal;HPM_P1;HPM_P2
2022/03/10 00:00:57;;;;;;;;;50.50;40.50;;;;;9.89;54.16;101863.53;2452173;27;45256;-83
2022/03/10 00:02:08;;;;;;;;;55.75;43.00;;;;;9.89;54.61;101874.03;2454982;27;45496;-83
2022/03/10 00:03:18;;;;;;;;;57.00;44.25;;;;;9.87;54.51;101874.06;2453222;27;45464;-83
2022/03/10 00:04:30;;;;;;;;;56.00;42.00;;;;;9.85;54.77;101873.19;2451181;28;46402;-84
2022/03/10 00:05:41;;;;;;;;;54.50;44.75;;;;;9.85;54.37;101878.44;2451813;28;45423;-84
2022/03/10 00:06:52;;;;;;;;;56.75;44.75;;;;;9.83;54.91;101874.97;2451212;28;47141;-84
2022/03/10 00:08:02;;;;;;;;;57.50;43.25;;;;;9.82;54.74;101873.25;2444136;28;45367;-85
2022/03/10 00:09:13;;;;;;;;;59.75;44.75;;;;;9.80;54.76;101875.03;2451414;28;45386;-85
2022/03/10 00:10:23;;;;;;;;;60.00;45.25;;;;;9.80;54.81;101877.66;2453212;27;45264;-85
2022/03/10 00:11:33;;;;;;;;;57.50;45.75;;;;;9.79;54.87;101873.25;2452553;27;45440;-86
2022/03/10 00:12:48;;;;;;;;;55.50;43.25;;;;;9.77;54.58;101869.78;2451755;28;45259;-86
2022/03/10 00:13:59;;;;;;;;;54.50;44.75;;;;;9.77;54.96;101875.91;2451568;28;46326;-86
2022/03/10 00:15:10;;;;;;;;;55.25;42.50;;;;;9.74;55.23;101872.44;2451666;27;45418;-86
2022/03/10 00:16:21;;;;;;;;;61.00;45.25;;;;;9.73;55.17;101878.59;2451608;27;47393;-86
2022/03/10 00:17:31;;;;;;;;;56.50;43.50;;;;;9.68;55.01;101871.63;2451977;27;44693;-86
2022/03/10 00:18:42;;;;;;;;;55.00;41.50;;;;;9.68;55.18;101871.63;2452089;27;46484;-86
2022/03/10 00:19:52;;;;;;;;;57.00;43.75;;;;;9.65;54.70;101871.69;2450940;27;45437;-86
2022/03/10 00:21:02;;;;;;;;;57.25;42.50;;;;;9.64;55.05;101869.94;2451245;28;46398;-86
2022/03/10 00:22:13;;;;;;;;;53.50;44.75;;;;;9.63;55.29;101876.03;2451989;28;45277;-86
2022/03/10 00:23:24;;;;;;;;;53.75;42.50;;;;;9.63;55.42;101875.22;2451918;28;45312;-86
2022/03/10 00:24:34;;;;;;;;;57.25;42.50;;;;;9.60;55.56;101870.84;2451345;27;45707;-86
2022/03/10 00:25:44;;;;;;;;;56.00;45.00;;;;;9.60;55.18;101876.09;2451763;28;46556;-86
2022/03/10 00:26:55;;;;;;;;;58.50;45.00;;;;;9.59;55.59;101873.47;2452089;28;45169;-86
2022/03/10 00:28:05;;;;;;;;;55.00;44.00;;;;;9.57;54.88;101873.50;2451701;28;45270;-86
2022/03/10 00:29:15;;;;;;;;;54.25;45.00;;;;;9.55;55.24;101870.03;2451178;28;45467;-87
2022/03/10 00:30:26;;;;;;;;;57.75;45.25;;;;;9.54;55.67;101873.53;2451134;28;45335;-87
2022/03/10 00:31:36;;;;;;;;;55.25;44.75;;;;;9.54;55.24;101873.53;2451273;28;45236;-87
2022/03/10 00:32:49;;;;;;;;;55.00;45.50;;;;;9.52;55.80;101872.69;2450570;28;46226;-87
2022/03/10 00:34:00;;;;;;;;;59.50;45.25;;;;;9.50;55.67;101877.06;2450917;28;45231;-87
2022/03/10 00:35:15;;;;;;;;;55.50;44.75;;;;;9.51;55.35;101876.16;2451084;28;45932;-87
2022/03/10 00:36:25;;;;;;;;;57.00;45.25;;;;;9.45;55.39;101878.00;2451938;28;45326;-87
2022/03/10 00:37:36;;;;;;;;;56.25;44.00;;;;;9.48;55.43;101873.59;2451661;27;45480;-86
2022/03/10 00:38:46;;;;;;;;;54.75;45.00;;;;;9.45;55.82;101877.13;2451051;28;44764;-86
2022/03/10 00:39:57;;;;;;;;;57.25;45.00;;;;;9.42;55.44;101883.28;2450937;28;46353;-86
2022/03/10 00:41:09;;;;;;;;;57.00;45.25;;;;;9.44;55.50;101884.13;2451827;27;44610;-86
2022/03/10 00:42:19;;;;;;;;;55.50;45.00;;;;;9.41;55.50;101889.41;2450883;28;46256;-86
2022/03/10 00:43:30;;;;;;;;;58.75;45.00;;;;;9.38;55.66;101881.56;2451228;28;44624;-86
2022/03/10 00:44:40;;;;;;;;;54.75;44.50;;;;;9.37;56.02;101884.19;2451152;28;45185;-86
2022/03/10 00:45:51;;;;;;;;;54.00;44.00;;;;;9.37;55.93;101885.06;2451797;28;45286;-86
2022/03/10 00:47:01;;;;;;;;;50.00;41.00;;;;;9.37;55.75;101887.69;2450850;28;47114;-86
2022/03/10 00:48:11;;;;;;;;;51.75;42.00;;;;;9.33;55.67;101888.63;2451387;28;44732;-87
2022/03/10 00:49:22;;;;;;;;;54.00;41.75;;;;;9.32;56.15;101890.34;2451542;28;46188;-82
2022/03/10 00:50:32;;;;;;;;;54.25;43.25;;;;;9.32;56.19;101892.97;2451513;28;45431;-82
2022/03/10 00:51:45;;;;;;;;;54.00;44.75;;;;;9.32;56.10;101890.34;2450324;28;47237;-82
2022/03/10 00:52:55;;;;;;;;;55.00;42.25;;;;;9.28;55.90;101886.03;2451403;28;45323;-82
2022/03/10 00:54:05;;;;;;;;;57.00;43.00;;;;;9.28;55.75;101888.66;2450753;28;47195;-82
2022/03/10 00:55:17;;;;;;;;;54.75;42.75;;;;;9.28;56.02;101888.66;2451002;28;44767;-82
2022/03/10 00:56:28;;;;;;;;;55.25;43.50;;;;;9.25;55.87;101886.06;2451705;27;45238;-82
2022/03/10 00:57:39;;;;;;;;;52.50;40.00;;;;;9.23;56.57;101891.28;2451776;27;45234;-82
2022/03/10 00:58:49;;;;;;;;;56.25;44.75;;;;;9.21;56.39;101887.81;2451546;28;45704;-82
2022/03/10 00:59:59;;;;;;;;;52.00;42.00;;;;;9.23;56.30;101890.44;2451713;27;45298;-82
2022/03/10 01:01:10;;;;;;;;;55.00;43.75;;;;;9.22;56.21;101893.94;2451735;27;45530;-82
2022/03/10 01:02:21;;;;;;;;;48.75;41.50;;;;;9.19;56.22;101889.59;2450475;28;44895;-82
2022/03/10 01:03:31;;;;;;;;;53.75;43.25;;;;;9.16;56.32;101886.97;2450596;28;46345;-82
2022/03/10 01:04:43;;;;;;;;;52.00;42.25;;;;;9.16;56.21;101889.59;2450811;28;45307;-82
2022/03/10 01:05:53;;;;;;;;;52.25;42.00;;;;;9.15;56.08;101887.88;2450853;28;45366;-82
2022/03/10 01:07:04;;;;;;;;;53.00;42.75;;;;;9.13;56.25;101894.91;2450761;28;45379;-81
2022/03/10 01:08:14;;;;;;;;;52.00;43.50;;;;;9.12;56.10;101887.91;2450926;28;46453;-81
2022/03/10 01:09:25;;;;;;;;;60.25;45.00;;;;;9.12;56.29;101887.91;2450479;28;45200;-85
2022/03/10 01:10:35;;;;;;;;;56.25;43.00;;;;;9.11;56.33;101892.28;2440473;28;47478;-83
2022/03/10 01:11:45;;;;;;;;;55.75;43.75;;;;;9.09;56.38;101883.56;2446860;28;44701;-83
2022/03/10 01:12:56;;;;;;;;;49.50;39.75;;;;;9.08;56.70;101886.19;2456524;27;47049;-83
2022/03/10 01:14:06;;;;;;;;;51.25;40.00;;;;;9.07;56.69;101890.56;2451067;28;45251;-83
2022/03/10 01:15:23;;;;;;;;;54.00;42.75;;;;;9.09;56.63;101895.78;2451430;28;46391;-83
2022/03/10 01:16:33;;;;;;;;;52.50;41.75;;;;;9.06;56.93;101887.97;2450743;28;45371;-83
2022/03/10 01:17:45;;;;;;;;;51.75;39.50;;;;;9.06;56.58;101890.59;2443435;28;48499;-83
2022/03/10 01:18:55;;;;;;;;;59.50;42.75;;;;;9.05;56.80;101891.47;2451195;28;44693;-82
2022/03/10 01:20:06;;;;;;;;;51.75;40.25;;;;;9.02;56.51;101892.34;2451193;28;45457;-81
2022/03/10 01:21:16;;;;;;;;;56.00;43.25;;;;;9.01;56.67;101890.63;2451261;28;45396;-80
2022/03/10 01:22:27;;;;;;;;;54.50;42.25;;;;;9.00;56.65;101894.13;2451258;28;45216;-80
2022/03/10 01:23:37;;;;;;;;;52.50;41.50;;;;;8.99;56.64;101895.00;2451531;28;45290;-80
2022/03/10 01:24:47;;;;;;;;;51.25;40.75;;;;;8.99;56.91;101889.75;2450205;28;47970;-80
2022/03/10 01:25:58;;;;;;;;;50.50;41.25;;;;;8.97;56.65;101884.53;2450876;28;45305;-80
2022/03/10 01:27:09;;;;;;;;;54.25;42.00;;;;;8.99;56.78;101893.25;2451331;28;45234;-81
2022/03/10 01:28:19;;;;;;;;;57.00;43.00;;;;;8.94;56.99;101887.16;2450861;28;45271;-80
2022/03/10 01:29:30;;;;;;;;;51.75;39.75;;;;;8.96;56.68;101892.41;2450777;28;46094;-80
2022/03/10 01:30:42;;;;;;;;;53.25;42.00;;;;;8.96;56.62;101888.00;2451474;28;45206;-81
2022/03/10 01:31:53;;;;;;;;;48.50;40.00;;;;;8.95;56.47;101888.91;2450809;28;45439;-81
2022/03/10 01:33:03;;;;;;;;;55.00;43.00;;;;;8.93;56.85;101882.81;2441858;28;45306;-81
2022/03/10 01:34:13;;;;;;;;;54.25;41.50;;;;;8.93;57.19;101882.81;2446731;28;48496;-81
2022/03/10 01:35:24;;;;;;;;;49.50;40.25;;;;;8.92;56.81;101885.44;2450816;28;45235;-81
2022/03/10 01:36:34;;;;;;;;;56.00;42.50;;;;;8.91;56.56;101883.72;2451274;27;45361;-81
2022/03/10 01:37:45;;;;;;;;;51.00;40.00;;;;;8.92;56.83;101890.69;2451336;28;44689;-81
2022/03/10 01:38:55;;;;;;;;;52.00;39.50;;;;;8.88;56.73;101880.22;2451161;27;46208;-81
2022/03/10 01:40:09;;;;;;;;;50.75;38.25;;;;;8.89;56.71;101887.19;2450719;27;45363;-81
2022/03/10 01:41:19;;;;;;;;;52.50;42.25;;;;;8.88;56.90;101885.47;2451301;27;46130;-81
2022/03/10 01:42:30;;;;;;;;;46.25;38.50;;;;;8.88;56.92;101884.59;2451064;27;44605;-81
2022/03/10 01:43:59;;;;;;;;;51.75;39.50;;;;;8.88;56.58;101888.09;2451166;27;45338;-81
2022/03/10 01:45:11;;;;;;;;;52.00;41.00;;;;;8.86;57.09;101891.59;2451284;28;44586;-81
2022/03/10 01:46:21;;;;;;;;;50.50;41.25;;;;;8.84;56.79;101882.88;2450508;28;47191;-81
2022/03/10 01:47:32;;;;;;;;;50.25;40.75;;;;;8.84;56.68;101882.88;2450712;28;44801;-81
2022/03/10 01:48:43;;;;;;;;;51.00;41.25;;;;;8.83;56.91;101884.63;2451118;27;45432;-81
2022/03/10 01:49:54;;;;;;;;;52.00;42.25;;;;;8.82;56.56;101879.38;2450855;27;45370;-81
2022/03/10 01:51:04;;;;;;;;;52.75;41.25;;;;;8.81;56.58;101882.91;2450870;28;45400;-81
2022/03/10 01:52:16;;;;;;;;;50.00;39.75;;;;;8.81;56.86;101883.78;2450437;28;45398;-79
2022/03/10 01:53:26;;;;;;;;;53.75;42.25;;;;;8.81;57.00;101886.41;2443284;28;47241;-80
2022/03/10 01:54:37;;;;;;;;;53.25;41.00;;;;;8.78;56.63;101882.03;2450621;28;44685;-80
2022/03/10 01:55:47;;;;;;;;;51.75;41.50;;;;;8.78;57.21;101876.81;2451126;28;45199;-81
2022/03/10 01:56:58;;;;;;;;;55.00;42.75;;;;;8.78;56.85;101883.78;2451240;28;45274;-81
2022/03/10 01:58:10;;;;;;;;;51.75;40.25;;;;;8.77;56.64;101888.16;2450910;28;46238;-79
2022/03/10 01:59:20;;;;;;;;;51.00;40.50;;;;;8.73;56.93;101881.19;2449422;28;45157;-80
2022/03/10 02:00:31;;;;;;;;;55.00;42.00;;;;;8.74;57.19;101877.69;2451039;27;46350;-79
2022/03/10 02:01:41;;;;;;;;;54.50;42.50;;;;;8.71;57.23;101874.22;2451016;27;45496;-80
2022/03/10 02:02:52;;;;;;;;;38.00;31.25;;;;;8.73;56.84;101878.59;2451140;28;45314;-80
2022/03/10 02:04:02;;;;;;;;;51.50;38.00;;;;;8.70;56.53;101873.34;2451154;27;45394;-80
2022/03/10 02:05:13;;;;;;;;;49.75;39.75;;;;;8.69;56.99;101874.25;2450507;27;45373;-80
2022/03/10 02:06:23;;;;;;;;;53.75;40.00;;;;;8.70;57.20;101870.72;2451348;28;45412;-79
2022/03/10 02:10:34;;;;;;;;;49.00;40.75;;;;;8.66;56.85;101871.66;2453765;27;45418;-79
2022/03/10 02:11:45;;;;;;;;;52.00;40.75;;;;;8.64;57.00;101873.41;2456916;27;45274;-79
2022/03/10 02:12:56;;;;;;;;;45.00;36.00;;;;;8.63;57.29;101874.28;2450766;27;45452;-79
2022/03/10 02:17:20;;;;;;;;;53.00;41.75;;;;;8.59;57.15;101883.03;2450424;28;45327;-79
2022/03/10 02:18:30;;;;;;;;;52.50;41.50;;;;;8.60;56.88;101877.78;2451023;28;45278;-78
2022/03/10 02:19:41;;;;;;;;;49.25;41.25;;;;;8.56;56.86;101873.41;2450609;28;45180;-79
2022/03/10 02:20:52;;;;;;;;;52.25;41.25;;;;;8.57;57.22;101874.28;2450786;28;46132;-79
2022/03/10 02:22:07;;;;;;;;;53.00;41.00;;;;;8.54;57.42;101870.78;2450879;27;45377;-79
2022/03/10 02:23:18;;;;;;;;;43.75;38.50;;;;;8.53;56.98;101869.06;2449707;27;46427;-79
2022/03/10 02:24:29;;;;;;;;;50.25;38.75;;;;;8.52;57.01;101871.72;2450915;27;45263;-80
2022/03/10 02:25:41;;;;;;;;;49.75;40.25;;;;;8.51;57.07;101870.84;2450842;27;45207;-79
2022/03/10 02:26:51;;;;;;;;;50.00;40.25;;;;;8.52;57.34;101869.09;2451019;28;45377;-78
2022/03/10 02:28:02;;;;;;;;;45.50;39.50;;;;;8.51;57.44;101875.19;2450819;27;46344;-78
2022/03/10 02:29:12;;;;;;;;;49.00;41.00;;;;;8.50;56.86;101869.06;2451112;28;45235;-78
2022/03/10 02:30:25;;;;;;;;;52.50;40.00;;;;;8.51;57.60;101875.19;2450044;28;47465;-77
2022/03/10 02:31:39;;;;;;;;;51.00;41.75;;;;;8.47;57.25;101863.84;2450276;28;45350;-77
2022/03/10 02:32:50;;;;;;;;;53.75;42.75;;;;;8.48;57.03;101868.22;2450815;28;46369;-80
2022/03/10 02:34:00;;;;;;;;;50.00;39.00;;;;;8.46;57.08;101869.09;2450470;27;44637;-80
2022/03/10 02:35:11;;;;;;;;;52.25;40.25;;;;;8.45;57.05;101863.00;2450648;28;46157;-80
2022/03/10 02:36:21;;;;;;;;;50.75;40.75;;;;;8.46;57.03;101867.38;2450215;28;44835;-80
2022/03/10 02:37:32;;;;;;;;;48.25;39.75;;;;;8.46;57.00;101872.59;2450341;28;45419;-80
2022/03/10 02:38:42;;;;;;;;;55.25;39.25;;;;;8.43;57.22;101873.50;2450891;28;44770;-80
2022/03/10 02:39:52;;;;;;;;;44.00;36.25;;;;;8.43;57.36;101872.63;2450387;28;45494;-80
2022/03/10 02:41:03;;;;;;;;;44.75;36.75;;;;;8.43;57.59;101872.63;2450934;27;45432;-80
2022/03/10 02:42:14;;;;;;;;;48.00;38.25;;;;;8.44;57.35;101874.38;2450196;28;45362;-80
2022/03/10 02:43:24;;;;;;;;;40.00;34.50;;;;;8.39;57.09;101866.53;2450587;28;45444;-80
2022/03/10 02:44:42;;;;;;;;;52.25;41.25;;;;;8.39;57.75;101876.13;2450742;27;45404;-80
2022/03/10 02:45:53;;;;;;;;;48.50;37.25;;;;;8.39;57.61;101866.53;2450777;27;45355;-80
2022/03/10 02:47:03;;;;;;;;;49.50;40.00;;;;;8.39;57.47;101876.13;2450691;27;46200;-80
2022/03/10 02:48:15;;;;;;;;;47.50;39.00;;;;;8.40;57.44;101877.84;2450879;28;45168;-79
2022/03/10 02:49:26;;;;;;;;;55.00;40.75;;;;;8.37;57.62;101878.75;2450921;27;45367;-79
2022/03/10 02:50:36;;;;;;;;;49.50;39.50;;;;;8.37;56.89;101872.66;2450567;28;45159;-79
2022/03/10 02:51:46;;;;;;;;;50.75;42.50;;;;;8.37;57.23;101880.53;2450430;28;46345;-80
2022/03/10 02:52:57;;;;;;;;;46.50;37.75;;;;;8.35;57.15;101880.50;2451051;28;45125;-80
2022/03/10 02:54:07;;;;;;;;;51.50;39.75;;;;;8.37;57.01;101880.53;2450529;28;46348;-79
2022/03/10 02:55:18;;;;;;;;;48.25;38.50;;;;;8.34;57.40;101881.41;2450761;27;44579;-79
2022/03/10 02:56:28;;;;;;;;;51.75;40.25;;;;;8.35;57.68;101883.13;2450824;27;45402;-79
2022/03/10 02:57:39;;;;;;;;;51.25;40.00;;;;;8.34;57.51;101884.03;2450984;28;45149;-80
2022/03/10 02:58:49;;;;;;;;;51.75;40.75;;;;;8.35;57.12;101880.50;2450515;28;46326;-78
2022/03/10 03:00:00;;;;;;;;;47.75;38.25;;;;;8.31;56.99;101882.28;2450847;27;45164;-77
2022/03/10 03:01:11;;;;;;;;;51.50;38.75;;;;;8.31;57.39;101879.66;2450739;28;45420;-77
2022/03/10 03:02:22;;;;;;;;;54.25;41.75;;;;;8.33;56.99;101888.38;2449307;28;45414;-78
2022/03/10 03:03:33;;;;;;;;;47.50;37.25;;;;;8.30;57.21;101877.91;2449944;28;46489;-78
2022/03/10 03:04:44;;;;;;;;;48.00;40.50;;;;;8.32;57.13;101883.16;2450738;28;45480;-77
2022/03/10 03:05:54;;;;;;;;;47.50;37.75;;;;;8.31;57.09;101887.53;2450536;27;45417;-77
2022/03/10 03:07:05;;;;;;;;;48.25;40.25;;;;;8.31;57.46;101884.03;2450640;28;45259;-78
2022/03/10 03:08:15;;;;;;;;;52.50;39.25;;;;;8.28;57.45;101890.16;2450581;28;46206;-78
2022/03/10 03:09:25;;;;;;;;;47.25;39.75;;;;;8.29;57.00;101883.16;2450461;27;45429;-79
2022/03/10 03:10:36;;;;;;;;;51.25;40.00;;;;;8.28;57.20;101882.28;2453813;27;45536;-79
2022/03/10 03:11:47;;;;;;;;;47.25;34.75;;;;;8.27;57.27;101879.69;2452948;27;45273;-79
2022/03/10 03:12:58;;;;;;;;;41.75;35.25;;;;;8.28;57.10;101882.28;2458477;27;45426;-79
2022/03/10 03:14:08;;;;;;;;;48.50;38.25;;;;;8.27;57.48;101885.78;2449805;28;44638;-79
2022/03/10 03:15:19;;;;;;;;;45.50;35.75;;;;;8.25;57.49;101887.53;2442716;28;46991;-80
2022/03/10 03:16:30;;;;;;;;;48.75;39.00;;;;;8.26;57.21;101885.78;2450151;28;45293;-80
2022/03/10 03:17:41;;;;;;;;;43.25;37.00;;;;;8.24;57.04;101885.81;2440179;28;48321;-80
2022/03/10 03:18:52;;;;;;;;;49.75;40.00;;;;;8.27;57.50;101890.19;2446512;28;44733;-80
2022/03/10 03:20:04;;;;;;;;;48.50;40.00;;;;;8.26;57.24;101888.41;2450024;28;45443;-79
2022/03/10 03:21:15;;;;;;;;;53.25;42.25;;;;;8.22;57.21;101887.56;2450795;27;45376;-80
2022/03/10 03:22:25;;;;;;;;;50.25;39.50;;;;;8.24;57.20;101891.06;2450502;28;45462;-79
2022/03/10 03:23:35;;;;;;;;;47.50;39.75;;;;;8.22;56.89;101891.03;2450649;28;45456;-79
2022/03/10 03:24:46;;;;;;;;;51.50;41.00;;;;;8.23;57.49;101891.91;2450353;27;45378;-79
2022/03/10 03:25:56;;;;;;;;;48.50;40.00;;;;;8.23;57.51;101894.53;2450723;28;45122;-79
2022/03/10 03:27:07;;;;;;;;;39.50;30.75;;;;;8.21;57.55;101894.56;2450484;27;45381;-79
2022/03/10 03:28:21;;;;;;;;;47.00;36.00;;;;;8.19;57.23;101888.47;2450726;28;45366;-78
2022/03/10 03:29:31;;;;;;;;;51.25;40.25;;;;;8.19;57.24;101885.84;2450223;27;45343;-78
2022/03/10 03:30:41;;;;;;;;;42.75;36.50;;;;;8.20;57.05;101897.16;2450758;27;45356;-80
2022/03/10 03:31:52;;;;;;;;;49.75;37.75;;;;;8.19;57.25;101891.06;2450424;28;45411;-80
2022/03/10 03:33:03;;;;;;;;;47.25;38.50;;;;;8.18;57.43;101891.94;2450618;27;45302;-80
2022/03/10 03:34:13;;;;;;;;;46.50;38.00;;;;;8.19;57.12;101896.31;2451164;28;45354;-80
2022/03/10 03:35:25;;;;;;;;;43.25;34.00;;;;;8.18;57.06;101896.31;2452173;27;45488;-81
2022/03/10 03:36:39;;;;;;;;;43.00;34.00;;;;;8.16;56.67;101898.94;2452105;27;45365;-81
2022/03/10 03:37:49;;;;;;;;;47.50;37.75;;;;;8.16;57.08;101898.06;2452290;27;45216;-82
2022/03/10 03:39:00;;;;;;;;;43.50;35.00;;;;;8.14;57.24;101891.97;2451963;27;46547;-81
2022/03/10 03:40:11;;;;;;;;;42.75;35.00;;;;;8.15;57.14;101896.34;2452009;28;44635;-81
2022/03/10 03:41:21;;;;;;;;;49.00;38.50;;;;;8.15;57.47;101906.81;2451021;28;47019;-81
2022/03/10 03:42:34;;;;;;;;;42.50;35.25;;;;;8.15;57.24;101896.34;2458126;27;45481;-81
2022/03/10 03:43:44;;;;;;;;;46.00;36.00;;;;;8.13;56.90;101895.44;2453413;27;45407;-81
2022/03/10 03:44:54;;;;;;;;;45.75;38.50;;;;;8.15;57.02;101904.19;2452137;28;45398;-81
2022/03/10 03:46:05;;;;;;;;;41.50;35.25;;;;;8.12;57.43;101899.84;2451992;28;45325;-81
2022/03/10 03:47:15;;;;;;;;;49.00;38.00;;;;;8.13;56.77;101908.53;2452287;28;45380;-83
2022/03/10 03:48:25;;;;;;;;;45.75;37.00;;;;;8.12;57.08;101899.84;2452057;28;45575;-83
2022/03/10 03:49:36;;;;;;;;;38.50;32.75;;;;;8.12;56.83;101904.19;2451775;28;46129;-82
2022/03/10 03:50:46;;;;;;;;;36.50;34.00;;;;;8.12;57.08;101904.19;2452057;27;45293;-81
2022/03/10 03:51:57;;;;;;;;;42.00;35.00;;;;;8.13;57.42;101908.53;2451308;28;45320;-81
2022/03/10 03:53:07;;;;;;;;;42.50;35.25;;;;;8.12;57.47;101904.19;2451576;28;45249;-81
2022/03/10 03:54:18;;;;;;;;;49.00;39.75;;;;;8.13;57.38;101908.53;2451925;28;44652;-81
2022/03/10 03:55:29;;;;;;;;;49.25;37.00;;;;;8.11;57.23;101900.69;2451294;28;47626;-81
2022/03/10 03:56:39;;;;;;;;;41.50;35.75;;;;;8.12;56.98;101898.97;2451672;28;44623;-81
2022/03/10 03:57:50;;;;;;;;;48.50;37.50;;;;;8.12;57.33;101904.19;2451939;28;46689;-81
2022/03/10 03:59:00;;;;;;;;;39.00;33.50;;;;;8.13;56.96;101906.81;2452145;27;44585;-81
2022/03/10 04:00:11;;;;;;;;;40.50;34.50;;;;;8.12;56.88;101898.97;2451902;28;46216;-81
2022/03/10 04:01:21;;;;;;;;;45.25;37.00;;;;;8.14;57.23;101905.06;2451786;28;45354;-81
2022/03/10 04:02:32;;;;;;;;;45.75;36.25;;;;;8.12;56.94;101898.97;2451247;28;46324;-81
2022/03/10 04:03:42;;;;;;;;;40.75;32.00;;;;;8.12;57.58;101904.19;2451673;28;44767;-81
2022/03/10 04:04:53;;;;;;;;;41.25;36.00;;;;;8.12;57.31;101905.06;2450948;28;47768;-81
2022/03/10 04:06:03;;;;;;;;;46.25;33.50;;;;;8.12;56.93;101910.31;2444057;28;45453;-81
2022/03/10 04:07:14;;;;;;;;;47.00;36.00;;;;;8.14;56.65;101907.69;2444177;28;48131;-81
2022/03/10 04:08:25;;;;;;;;;45.00;35.00;;;;;8.13;57.09;101914.66;2451617;28;44732;-80
2022/03/10 04:09:35;;;;;;;;;42.75;33.50;;;;;8.12;56.52;101905.06;2451392;28;45471;-81
2022/03/10 04:10:45;;;;;;;;;47.75;36.75;;;;;8.12;57.38;101909.44;2455428;27;45357;-81
2022/03/10 04:11:56;;;;;;;;;49.25;38.00;;;;;8.10;57.24;101905.06;2451831;27;46132;-81
2022/03/10 04:13:06;;;;;;;;;45.75;35.25;;;;;8.13;56.75;101913.78;2451854;28;45173;-82
2022/03/10 04:14:18;;;;;;;;;39.25;33.50;;;;;8.12;57.18;101909.44;2451046;28;48378;-81
2022/03/10 04:15:29;;;;;;;;;45.75;37.00;;;;;8.12;57.05;101904.19;2451599;28;45314;-82
2022/03/10 04:16:40;;;;;;;;;49.75;36.50;;;;;8.12;57.01;101915.56;2451776;27;45254;-82
2022/03/10 04:17:50;;;;;;;;;42.75;35.00;;;;;8.12;57.41;101914.69;2450953;28;45441;-81
2022/03/10 04:19:00;;;;;;;;;50.50;38.00;;;;;8.13;57.01;101917.28;2451384;28;45501;-82
2022/03/10 04:20:13;;;;;;;;;44.00;35.00;;;;;8.12;56.91;101909.44;2451999;27;45294;-82
2022/03/10 04:21:24;;;;;;;;;47.00;35.50;;;;;8.11;57.34;101916.41;2457955;27;45364;-81
2022/03/10 04:22:34;;;;;;;;;39.25;33.75;;;;;8.12;56.87;101912.06;2459278;27;45289;-81
2022/03/10 04:23:45;;;;;;;;;43.75;34.75;;;;;8.12;56.96;101915.56;2451006;28;47762;-81
2022/03/10 04:24:55;;;;;;;;;45.50;36.50;;;;;8.12;57.16;101919.91;2451140;28;45441;-81
2022/03/10 04:26:05;;;;;;;;;42.25;34.25;;;;;8.13;56.92;101921.63;2451855;27;45253;-81
2022/03/10 04:27:16;;;;;;;;;41.75;34.00;;;;;8.11;57.14;101924.28;2451881;28;45274;-81
2022/03/10 04:28:26;;;;;;;;;49.75;37.00;;;;;8.11;57.30;101926.88;2451563;28;45274;-81
2022/03/10 04:29:36;;;;;;;;;37.50;31.25;;;;;8.09;57.04;101916.44;2451717;28;45199;-81
2022/03/10 04:30:47;;;;;;;;;47.25;36.75;;;;;8.09;57.05;101911.19;2459581;27;47140;-81
2022/03/10 04:31:57;;;;;;;;;41.75;36.50;;;;;8.10;56.96;101920.78;2451576;28;44580;-81
2022/03/10 04:33:08;;;;;;;;;45.75;34.75;;;;;8.09;56.75;101918.16;2450842;28;47007;-81
2022/03/10 04:34:18;;;;;;;;;41.75;35.00;;;;;8.10;56.57;101922.50;2451508;28;44748;-81
2022/03/10 04:35:29;;;;;;;;;44.00;36.50;;;;;8.09;57.03;101919.06;2451684;28;46541;-81
2022/03/10 04:36:39;;;;;;;;;42.25;31.50;;;;;8.08;57.14;101917.28;2451920;27;45227;-81
2022/03/10 04:37:51;;;;;;;;;43.25;37.00;;;;;8.08;57.38;101921.66;2451382;28;45409;-81
2022/03/10 04:39:03;;;;;;;;;45.75;36.50;;;;;8.08;56.64;101919.03;2450855;28;45235;-80
2022/03/10 04:40:14;;;;;;;;;46.00;37.00;;;;;8.08;57.11;101922.53;2451157;28;46383;-80
2022/03/10 04:41:24;;;;;;;;;43.00;35.00;;;;;8.07;56.81;101925.16;2451603;28;45354;-81
2022/03/10 04:42:36;;;;;;;;;43.00;34.25;;;;;8.08;57.31;101926.91;2451272;28;45412;-78
2022/03/10 04:43:47;;;;;;;;;46.00;36.25;;;;;8.07;57.48;101928.66;2451746;28;45168;-78
2022/03/10 04:44:58;;;;;;;;;40.75;36.00;;;;;8.04;57.15;101923.44;2450783;28;47997;-78
2022/03/10 04:46:08;;;;;;;;;45.50;36.75;;;;;8.06;57.27;101923.41;2449912;28;45174;-79
2022/03/10 04:47:19;;;;;;;;;45.75;36.00;;;;;8.06;56.76;101928.66;2451436;27;45440;-79
2022/03/10 04:48:30;;;;;;;;;39.50;30.25;;;;;8.03;57.22;101921.66;2451366;27;45161;-79
2022/03/10 04:49:40;;;;;;;;;43.75;35.75;;;;;8.03;56.60;101926.03;2450740;28;47075;-80
2022/03/10 04:50:51;;;;;;;;;41.25;34.75;;;;;8.03;56.97;101924.28;2451157;28;45231;-80
2022/03/10 04:52:01;;;;;;;;;47.75;37.00;;;;;8.03;57.33;101932.16;2451632;28;46151;-80
2022/03/10 04:53:12;;;;;;;;;39.75;34.75;;;;;8.02;56.83;101926.94;2451316;28;45402;-77
2022/03/10 04:54:22;;;;;;;;;40.75;34.50;;;;;8.00;57.30;101926.91;2451414;27;46417;-78
2022/03/10 04:55:33;;;;;;;;;46.75;37.00;;;;;8.02;57.21;101930.44;2451703;27;44782;-78
2022/03/10 04:56:43;;;;;;;;;48.50;37.25;;;;;8.01;57.05;101930.41;2451568;27;45373;-78
2022/03/10 04:57:53;;;;;;;;;45.75;37.25;;;;;7.98;57.41;101918.19;2451458;28;44662;-78
2022/03/10 04:59:04;;;;;;;;;40.50;35.00;;;;;7.98;57.07;101932.16;2451396;28;45360;-79
2022/03/10 05:00:18;;;;;;;;;41.75;35.75;;;;;7.96;56.82;101928.69;2451350;28;44751;-79
2022/03/10 05:01:29;;;;;;;;;41.25;35.00;;;;;7.95;56.84;101926.94;2451661;27;45623;-79
2022/03/10 05:02:40;;;;;;;;;47.00;38.00;;;;;7.95;57.51;101936.56;2451609;28;45283;-79
2022/03/10 05:03:51;;;;;;;;;48.25;36.00;;;;;7.95;56.76;101933.94;2451513;27;45414;-79
2022/03/10 05:05:03;;;;;;;;;41.00;34.50;;;;;7.96;57.22;101940.91;2451373;27;45357;-78
2022/03/10 05:06:13;;;;;;;;;41.50;35.00;;;;;7.93;57.13;101925.19;2451636;27;46430;-77
2022/03/10 05:07:23;;;;;;;;;43.50;37.00;;;;;7.92;57.18;101937.44;2451565;27;44830;-78
2022/03/10 05:08:34;;;;;;;;;47.25;37.50;;;;;7.93;56.90;101938.28;2451256;27;46098;-78
2022/03/10 05:09:44;;;;;;;;;45.75;36.75;;;;;7.91;57.01;101937.41;2451311;28;45320;-78
2022/03/10 05:10:55;;;;;;;;;46.50;36.00;;;;;7.90;56.96;101930.44;2457376;27;45259;-77
2022/03/10 05:12:05;;;;;;;;;46.75;37.75;;;;;7.90;56.72;101925.22;2455098;27;44614;-77
2022/03/10 05:13:16;;;;;;;;;50.00;40.25;;;;;7.88;57.25;101925.19;2450657;28;45565;-77
2022/03/10 05:14:26;;;;;;;;;48.00;35.75;;;;;7.86;57.18;101925.22;2450960;28;45202;-77
2022/03/10 05:15:36;;;;;;;;;48.75;36.00;;;;;7.83;57.55;101919.97;2443598;28;47398;-77
2022/03/10 05:16:47;;;;;;;;;48.50;37.50;;;;;7.85;57.12;101923.47;2451081;28;45239;-77
2022/03/10 05:17:59;;;;;;;;;47.25;37.00;;;;;7.84;57.49;101926.97;2450273;28;46355;-78
2022/03/10 05:19:09;;;;;;;;;47.25;36.75;;;;;7.84;57.49;101920.84;2451316;28;44538;-78
2022/03/10 05:20:20;;;;;;;;;50.50;39.00;;;;;7.83;57.34;101919.97;2451229;28;45337;-78
2022/03/10 05:21:30;;;;;;;;;47.00;37.25;;;;;7.83;57.38;101927.84;2451621;28;45226;-77
2022/03/10 05:22:49;;;;;;;;;52.00;38.00;;;;;7.81;57.16;101924.34;2451499;27;46272;-78
2022/03/10 05:24:00;;;;;;;;;48.25;35.00;;;;;7.79;57.05;101917.38;2451251;27;45160;-78
2022/03/10 05:25:11;;;;;;;;;46.75;36.25;;;;;7.78;57.50;101916.50;2451252;27;46411;-78
2022/03/10 05:26:21;;;;;;;;;44.00;35.75;;;;;7.78;57.22;101924.34;2451546;28;45224;-77
2022/03/10 05:27:31;;;;;;;;;46.75;38.75;;;;;7.78;57.49;101926.97;2451365;27;46138;-77
2022/03/10 05:28:42;;;;;;;;;48.25;37.00;;;;;7.76;57.10;101920.88;2451053;27;45223;-77
2022/03/10 05:29:52;;;;;;;;;50.00;36.50;;;;;7.76;57.44;101923.50;2451267;28;46031;-78
2022/03/10 05:31:02;;;;;;;;;33.25;28.25;;;;;7.73;57.28;101921.75;2451423;27;45377;-80
2022/03/10 05:32:16;;;;;;;;;50.25;38.25;;;;;7.75;57.29;101927.00;2450829;28;45374;-80